sensor_id;sensor_type;location;lat;lon;timestamp;temperature;humidity
21035;DHT22;10676;50.848;3.272;2023-12-20T00:01:34;6.80;99.90
21035;DHT22;10676;50.848;3.272;2023-12-20T00:03:59;6.80;99.90
21035;DHT22;10676;50.848;3.272;2023-12-20T00:06:25;6.70;99.90
21035;DHT22;10676;50.848;3.272;2023-12-20T00:08:51;6.70;99.90
21035;DHT22;10676;50.848;3.272;2023-12-20T00:11:17;6.70;99.90
21035;DHT22;10676;50.848;3.272;2023-12-20T00:13:42;6.70;99.90
21035;DHT22;10676;50.848;3.272;2023-12-20T00:16:09;6.70;99.90
21035;DHT22;10676;50.848;3.272;2023-12-20T00:18:34;6.70;99.90
21035;DHT22;10676;50.848;3.272;2023-12-20T00:21:00;6.70;99.90
21035;DHT22;10676;50.848;3.272;2023-12-20T00:23:25;6.80;99.90
21035;DHT22;10676;50.848;3.272;2023-12-20T00:25:51;6.90;99.90
21035;DHT22;10676;50.848;3.272;2023-12-20T00:28:17;6.90;99.90
21035;DHT22;10676;50.848;3.272;2023-12-20T00:30:46;6.90;99.90
21035;DHT22;10676;50.848;3.272;2023-12-20T00:33:11;6.90;99.90
21035;DHT22;10676;50.848;3.272;2023-12-20T00:35:39;6.80;99.90
21035;DHT22;10676;50.848;3.272;2023-12-20T00:38:05;6.80;99.90
21035;DHT22;10676;50.848;3.272;2023-12-20T00:40:32;6.80;99.90
21035;DHT22;10676;50.848;3.272;2023-12-20T00:42:58;6.80;99.90
21035;DHT22;10676;50.848;3.272;2023-12-20T00:45:26;6.80;99.90
21035;DHT22;10676;50.848;3.272;2023-12-20T00:47:52;6.80;99.90
21035;DHT22;10676;50.848;3.272;2023-12-20T00:50:17;6.70;99.90
21035;DHT22;10676;50.848;3.272;2023-12-20T00:52:43;6.70;99.90
21035;DHT22;10676;50.848;3.272;2023-12-20T00:55:10;6.60;99.90
21035;DHT22;10676;50.848;3.272;2023-12-20T00:57:36;6.70;99.90
21035;DHT22;10676;50.848;3.272;2023-12-20T01:00:04;6.70;99.90
21035;DHT22;10676;50.848;3.272;2023-12-20T01:02:30;6.70;99.90
21035;DHT22;10676;50.848;3.272;2023-12-20T01:04:56;6.70;99.90
21035;DHT22;10676;50.848;3.272;2023-12-20T01:07:22;6.60;99.90
21035;DHT22;10676;50.848;3.272;2023-12-20T01:09:47;6.70;99.90
21035;DHT22;10676;50.848;3.272;2023-12-20T01:12:13;6.70;99.90
21035;DHT22;10676;50.848;3.272;2023-12-20T01:14:40;6.70;99.90
21035;DHT22;10676;50.848;3.272;2023-12-20T01:17:05;6.70;99.90
21035;DHT22;10676;50.848;3.272;2023-12-20T01:19:32;6.80;99.90
21035;DHT22;10676;50.848;3.272;2023-12-20T01:21:58;6.80;99.90
21035;DHT22;10676;50.848;3.272;2023-12-20T01:24:26;6.80;99.90
21035;DHT22;10676;50.848;3.272;2023-12-20T01:26:51;6.70;99.90
21035;DHT22;10676;50.848;3.272;2023-12-20T01:29:17;6.70;99.90
21035;DHT22;10676;50.848;3.272;2023-12-20T01:31:43;6.60;99.90
21035;DHT22;10676;50.848;3.272;2023-12-20T01:34:08;6.60;99.90
21035;DHT22;10676;50.848;3.272;2023-12-20T01:36:34;6.60;99.90
21035;DHT22;10676;50.848;3.272;2023-12-20T01:39:00;6.60;99.90
21035;DHT22;10676;50.848;3.272;2023-12-20T01:41:25;6.50;99.90
21035;DHT22;10676;50.848;3.272;2023-12-20T01:43:51;6.50;99.90
21035;DHT22;10676;50.848;3.272;2023-12-20T01:46:19;6.40;99.90
21035;DHT22;10676;50.848;3.272;2023-12-20T01:48:51;6.40;99.90
21035;DHT22;10676;50.848;3.272;2023-12-20T01:51:17;6.30;99.90
21035;DHT22;10676;50.848;3.272;2023-12-20T01:53:43;6.20;99.90
21035;DHT22;10676;50.848;3.272;2023-12-20T01:56:10;6.20;99.90
21035;DHT22;10676;50.848;3.272;2023-12-20T01:58:41;6.20;99.90
21035;DHT22;10676;50.848;3.272;2023-12-20T02:01:09;6.10;99.90
21035;DHT22;10676;50.848;3.272;2023-12-20T02:03:35;6.10;99.90
21035;DHT22;10676;50.848;3.272;2023-12-20T02:06:03;6.10;99.90
21035;DHT22;10676;50.848;3.272;2023-12-20T02:08:28;6.00;99.90
21035;DHT22;10676;50.848;3.272;2023-12-20T02:10:55;6.00;99.90
21035;DHT22;10676;50.848;3.272;2023-12-20T02:13:21;6.00;99.90
21035;DHT22;10676;50.848;3.272;2023-12-20T02:15:47;5.90;99.90
21035;DHT22;10676;50.848;3.272;2023-12-20T02:18:12;5.90;99.90
21035;DHT22;10676;50.848;3.272;2023-12-20T02:20:41;5.90;99.90
21035;DHT22;10676;50.848;3.272;2023-12-20T02:23:06;5.90;99.90
21035;DHT22;10676;50.848;3.272;2023-12-20T02:25:32;5.80;99.90
21035;DHT22;10676;50.848;3.272;2023-12-20T02:27:58;5.80;99.90
21035;DHT22;10676;50.848;3.272;2023-12-20T02:30:23;5.80;99.90
21035;DHT22;10676;50.848;3.272;2023-12-20T02:32:50;5.80;99.90
21035;DHT22;10676;50.848;3.272;2023-12-20T02:35:23;5.80;99.90
21035;DHT22;10676;50.848;3.272;2023-12-20T02:37:48;5.80;99.90
21035;DHT22;10676;50.848;3.272;2023-12-20T02:40:14;5.80;99.90
21035;DHT22;10676;50.848;3.272;2023-12-20T02:42:47;5.90;99.90
21035;DHT22;10676;50.848;3.272;2023-12-20T02:45:13;5.90;99.90
21035;DHT22;10676;50.848;3.272;2023-12-20T02:47:38;5.90;99.90
21035;DHT22;10676;50.848;3.272;2023-12-20T02:50:05;5.90;99.90
21035;DHT22;10676;50.848;3.272;2023-12-20T02:52:30;6.00;99.90
21035;DHT22;10676;50.848;3.272;2023-12-20T02:54:56;6.00;99.90
21035;DHT22;10676;50.848;3.272;2023-12-20T02:57:22;6.00;99.90
21035;DHT22;10676;50.848;3.272;2023-12-20T02:59:47;5.90;99.90
21035;DHT22;10676;50.848;3.272;2023-12-20T03:02:13;5.90;99.90
21035;DHT22;10676;50.848;3.272;2023-12-20T03:04:39;5.90;99.90
21035;DHT22;10676;50.848;3.272;2023-12-20T03:07:04;5.90;99.90
21035;DHT22;10676;50.848;3.272;2023-12-20T03:09:30;5.90;99.90
21035;DHT22;10676;50.848;3.272;2023-12-20T03:11:55;5.90;99.90
21035;DHT22;10676;50.848;3.272;2023-12-20T03:14:24;5.90;99.90
21035;DHT22;10676;50.848;3.272;2023-12-20T03:16:50;5.90;99.90
21035;DHT22;10676;50.848;3.272;2023-12-20T03:19:21;5.80;99.90
21035;DHT22;10676;50.848;3.272;2023-12-20T03:21:46;5.80;99.90
21035;DHT22;10676;50.848;3.272;2023-12-20T03:24:13;5.80;99.90
21035;DHT22;10676;50.848;3.272;2023-12-20T03:26:39;5.80;99.90
21035;DHT22;10676;50.848;3.272;2023-12-20T03:29:05;5.80;99.90
21035;DHT22;10676;50.848;3.272;2023-12-20T03:31:36;5.80;99.90
21035;DHT22;10676;50.848;3.272;2023-12-20T03:34:01;5.70;99.90
21035;DHT22;10676;50.848;3.272;2023-12-20T03:36:27;5.80;99.90
21035;DHT22;10676;50.848;3.272;2023-12-20T03:38:52;5.80;99.90
21035;DHT22;10676;50.848;3.272;2023-12-20T03:41:18;5.80;99.90
21035;DHT22;10676;50.848;3.272;2023-12-20T03:43:50;5.90;99.90
21035;DHT22;10676;50.848;3.272;2023-12-20T03:46:16;5.90;99.90
21035;DHT22;10676;50.848;3.272;2023-12-20T03:48:41;5.90;99.90
21035;DHT22;10676;50.848;3.272;2023-12-20T03:51:07;5.90;99.90
21035;DHT22;10676;50.848;3.272;2023-12-20T03:53:33;5.90;99.90
21035;DHT22;10676;50.848;3.272;2023-12-20T03:55:59;5.90;99.90
21035;DHT22;10676;50.848;3.272;2023-12-20T03:58:24;5.90;99.90
21035;DHT22;10676;50.848;3.272;2023-12-20T04:00:50;5.90;99.90
21035;DHT22;10676;50.848;3.272;2023-12-20T04:03:19;5.90;99.90
21035;DHT22;10676;50.848;3.272;2023-12-20T04:05:44;5.90;99.90
21035;DHT22;10676;50.848;3.272;2023-12-20T04:08:12;5.90;99.90
21035;DHT22;10676;50.848;3.272;2023-12-20T04:10:38;5.90;99.90
21035;DHT22;10676;50.848;3.272;2023-12-20T04:13:05;5.90;99.90
21035;DHT22;10676;50.848;3.272;2023-12-20T04:15:30;5.90;99.90
21035;DHT22;10676;50.848;3.272;2023-12-20T04:17:56;5.90;99.90
21035;DHT22;10676;50.848;3.272;2023-12-20T04:20:22;5.90;99.90
21035;DHT22;10676;50.848;3.272;2023-12-20T04:22:48;5.90;99.90
21035;DHT22;10676;50.848;3.272;2023-12-20T04:25:17;5.80;99.90
21035;DHT22;10676;50.848;3.272;2023-12-20T04:27:42;5.80;99.90
21035;DHT22;10676;50.848;3.272;2023-12-20T04:30:08;5.80;99.90
21035;DHT22;10676;50.848;3.272;2023-12-20T04:32:34;5.80;99.90
21035;DHT22;10676;50.848;3.272;2023-12-20T04:35:00;5.80;99.90
21035;DHT22;10676;50.848;3.272;2023-12-20T04:37:26;5.80;99.90
21035;DHT22;10676;50.848;3.272;2023-12-20T04:39:51;5.80;99.90
21035;DHT22;10676;50.848;3.272;2023-12-20T04:42:18;5.80;99.90
21035;DHT22;10676;50.848;3.272;2023-12-20T04:44:44;5.70;99.90
21035;DHT22;10676;50.848;3.272;2023-12-20T04:47:10;5.70;99.90
21035;DHT22;10676;50.848;3.272;2023-12-20T04:49:36;5.80;99.90
21035;DHT22;10676;50.848;3.272;2023-12-20T04:52:01;5.80;99.90
21035;DHT22;10676;50.848;3.272;2023-12-20T04:54:28;5.70;99.90
21035;DHT22;10676;50.848;3.272;2023-12-20T04:56:54;5.80;99.90
21035;DHT22;10676;50.848;3.272;2023-12-20T04:59:19;5.80;99.90
21035;DHT22;10676;50.848;3.272;2023-12-20T05:01:53;5.80;99.90
21035;DHT22;10676;50.848;3.272;2023-12-20T05:04:19;5.80;99.90
21035;DHT22;10676;50.848;3.272;2023-12-20T05:06:45;5.80;99.90
21035;DHT22;10676;50.848;3.272;2023-12-20T05:09:11;5.80;99.90
21035;DHT22;10676;50.848;3.272;2023-12-20T05:11:37;5.80;99.90
21035;DHT22;10676;50.848;3.272;2023-12-20T05:14:02;5.90;99.90
21035;DHT22;10676;50.848;3.272;2023-12-20T05:16:28;5.90;99.90
21035;DHT22;10676;50.848;3.272;2023-12-20T05:18:54;5.90;99.90
21035;DHT22;10676;50.848;3.272;2023-12-20T05:21:19;5.90;99.90
21035;DHT22;10676;50.848;3.272;2023-12-20T05:23:48;6.00;99.90
21035;DHT22;10676;50.848;3.272;2023-12-20T05:26:14;5.90;99.90
21035;DHT22;10676;50.848;3.272;2023-12-20T05:28:39;5.90;99.90
21035;DHT22;10676;50.848;3.272;2023-12-20T05:31:05;5.90;99.90
21035;DHT22;10676;50.848;3.272;2023-12-20T05:33:32;5.90;99.90
21035;DHT22;10676;50.848;3.272;2023-12-20T05:35:58;5.90;99.90
21035;DHT22;10676;50.848;3.272;2023-12-20T05:38:23;5.90;99.90
21035;DHT22;10676;50.848;3.272;2023-12-20T05:40:49;5.90;99.90
21035;DHT22;10676;50.848;3.272;2023-12-20T05:43:14;5.90;99.90
21035;DHT22;10676;50.848;3.272;2023-12-20T05:45:40;6.00;99.90
21035;DHT22;10676;50.848;3.272;2023-12-20T05:48:06;6.10;99.90
21035;DHT22;10676;50.848;3.272;2023-12-20T05:50:32;6.20;99.90
21035;DHT22;10676;50.848;3.272;2023-12-20T05:52:58;6.20;99.90
21035;DHT22;10676;50.848;3.272;2023-12-20T05:55:24;6.30;99.90
21035;DHT22;10676;50.848;3.272;2023-12-20T05:57:58;6.30;99.90
21035;DHT22;10676;50.848;3.272;2023-12-20T06:00:24;6.20;99.90
21035;DHT22;10676;50.848;3.272;2023-12-20T06:02:50;6.10;99.90
21035;DHT22;10676;50.848;3.272;2023-12-20T06:05:16;6.10;99.90
21035;DHT22;10676;50.848;3.272;2023-12-20T06:07:42;6.00;99.90
21035;DHT22;10676;50.848;3.272;2023-12-20T06:10:08;6.00;99.90
21035;DHT22;10676;50.848;3.272;2023-12-20T06:12:34;5.90;99.90
21035;DHT22;10676;50.848;3.272;2023-12-20T06:15:02;5.90;99.90
21035;DHT22;10676;50.848;3.272;2023-12-20T06:17:27;5.80;99.90
21035;DHT22;10676;50.848;3.272;2023-12-20T06:19:56;5.80;99.90
21035;DHT22;10676;50.848;3.272;2023-12-20T06:22:22;5.80;99.90
21035;DHT22;10676;50.848;3.272;2023-12-20T06:24:47;5.70;99.90
21035;DHT22;10676;50.848;3.272;2023-12-20T06:27:13;5.70;99.90
21035;DHT22;10676;50.848;3.272;2023-12-20T06:29:39;5.60;99.90
21035;DHT22;10676;50.848;3.272;2023-12-20T06:32:07;5.60;99.90
21035;DHT22;10676;50.848;3.272;2023-12-20T06:34:33;5.60;99.90
21035;DHT22;10676;50.848;3.272;2023-12-20T06:36:58;5.50;99.90
21035;DHT22;10676;50.848;3.272;2023-12-20T06:39:24;5.50;99.90
21035;DHT22;10676;50.848;3.272;2023-12-20T06:41:50;5.50;99.90
21035;DHT22;10676;50.848;3.272;2023-12-20T06:44:15;5.50;99.90
21035;DHT22;10676;50.848;3.272;2023-12-20T06:46:41;5.50;99.90
21035;DHT22;10676;50.848;3.272;2023-12-20T06:49:06;5.50;99.90
21035;DHT22;10676;50.848;3.272;2023-12-20T06:51:32;5.50;99.90
21035;DHT22;10676;50.848;3.272;2023-12-20T06:53:58;5.60;99.90
21035;DHT22;10676;50.848;3.272;2023-12-20T06:56:24;5.50;99.90
21035;DHT22;10676;50.848;3.272;2023-12-20T06:58:49;5.50;99.90
21035;DHT22;10676;50.848;3.272;2023-12-20T07:01:16;5.50;99.90
21035;DHT22;10676;50.848;3.272;2023-12-20T07:03:41;5.50;99.90
21035;DHT22;10676;50.848;3.272;2023-12-20T07:06:13;5.50;99.90
21035;DHT22;10676;50.848;3.272;2023-12-20T07:08:42;5.50;99.90
21035;DHT22;10676;50.848;3.272;2023-12-20T07:11:07;5.50;99.90
21035;DHT22;10676;50.848;3.272;2023-12-20T07:13:36;5.50;99.90
21035;DHT22;10676;50.848;3.272;2023-12-20T07:16:02;5.40;99.90
21035;DHT22;10676;50.848;3.272;2023-12-20T07:18:30;5.40;99.90
21035;DHT22;10676;50.848;3.272;2023-12-20T07:20:56;5.40;99.90
21035;DHT22;10676;50.848;3.272;2023-12-20T07:23:22;5.40;99.90
21035;DHT22;10676;50.848;3.272;2023-12-20T07:25:48;5.30;99.90
21035;DHT22;10676;50.848;3.272;2023-12-20T07:28:13;5.30;99.90
21035;DHT22;10676;50.848;3.272;2023-12-20T07:30:39;5.20;99.90
21035;DHT22;10676;50.848;3.272;2023-12-20T07:33:05;5.20;99.90
21035;DHT22;10676;50.848;3.272;2023-12-20T07:35:33;5.10;99.90
21035;DHT22;10676;50.848;3.272;2023-12-20T07:37:59;5.00;99.90
21035;DHT22;10676;50.848;3.272;2023-12-20T07:40:25;5.00;99.90
21035;DHT22;10676;50.848;3.272;2023-12-20T07:42:54;4.90;99.90
21035;DHT22;10676;50.848;3.272;2023-12-20T07:45:19;4.90;99.90
21035;DHT22;10676;50.848;3.272;2023-12-20T07:47:45;4.90;99.90
21035;DHT22;10676;50.848;3.272;2023-12-20T07:50:10;4.80;99.90
21035;DHT22;10676;50.848;3.272;2023-12-20T07:52:36;4.80;99.90
21035;DHT22;10676;50.848;3.272;2023-12-20T07:55:02;4.80;99.90
21035;DHT22;10676;50.848;3.272;2023-12-20T07:57:29;4.80;99.90
21035;DHT22;10676;50.848;3.272;2023-12-20T07:59:56;4.90;99.90
21035;DHT22;10676;50.848;3.272;2023-12-20T08:02:21;4.90;99.90
21035;DHT22;10676;50.848;3.272;2023-12-20T08:04:47;4.90;99.90
21035;DHT22;10676;50.848;3.272;2023-12-20T08:07:13;4.90;99.90
21035;DHT22;10676;50.848;3.272;2023-12-20T08:09:38;4.90;99.90
21035;DHT22;10676;50.848;3.272;2023-12-20T08:12:04;5.00;99.90
21035;DHT22;10676;50.848;3.272;2023-12-20T08:14:30;4.90;99.90
21035;DHT22;10676;50.848;3.272;2023-12-20T08:17:00;5.00;99.90
21035;DHT22;10676;50.848;3.272;2023-12-20T08:19:25;5.00;99.90
21035;DHT22;10676;50.848;3.272;2023-12-20T08:21:51;5.00;99.90
21035;DHT22;10676;50.848;3.272;2023-12-20T08:24:17;5.10;99.90
21035;DHT22;10676;50.848;3.272;2023-12-20T08:26:46;5.10;99.90
21035;DHT22;10676;50.848;3.272;2023-12-20T08:29:13;5.20;99.90
21035;DHT22;10676;50.848;3.272;2023-12-20T08:31:40;5.30;99.90
21035;DHT22;10676;50.848;3.272;2023-12-20T08:34:06;5.40;99.90
21035;DHT22;10676;50.848;3.272;2023-12-20T08:36:31;5.50;99.90
21035;DHT22;10676;50.848;3.272;2023-12-20T08:38:58;5.60;99.90
21035;DHT22;10676;50.848;3.272;2023-12-20T08:41:26;5.80;99.90
21035;DHT22;10676;50.848;3.272;2023-12-20T08:43:51;5.90;99.90
21035;DHT22;10676;50.848;3.272;2023-12-20T08:46:17;6.00;99.90
21035;DHT22;10676;50.848;3.272;2023-12-20T08:48:43;6.10;99.90
21035;DHT22;10676;50.848;3.272;2023-12-20T08:51:08;6.20;99.90
21035;DHT22;10676;50.848;3.272;2023-12-20T08:53:35;6.30;99.90
21035;DHT22;10676;50.848;3.272;2023-12-20T08:56:01;6.40;99.90
21035;DHT22;10676;50.848;3.272;2023-12-20T08:58:28;6.50;99.90
21035;DHT22;10676;50.848;3.272;2023-12-20T09:00:53;6.60;99.90
21035;DHT22;10676;50.848;3.272;2023-12-20T09:03:19;6.70;99.90
21035;DHT22;10676;50.848;3.272;2023-12-20T09:05:44;6.80;99.90
21035;DHT22;10676;50.848;3.272;2023-12-20T09:08:10;6.90;99.90
21035;DHT22;10676;50.848;3.272;2023-12-20T09:10:37;7.10;99.90
21035;DHT22;10676;50.848;3.272;2023-12-20T09:13:03;7.30;99.90
21035;DHT22;10676;50.848;3.272;2023-12-20T09:15:29;7.40;99.90
21035;DHT22;10676;50.848;3.272;2023-12-20T09:17:55;7.50;99.90
21035;DHT22;10676;50.848;3.272;2023-12-20T09:20:21;7.60;99.90
21035;DHT22;10676;50.848;3.272;2023-12-20T09:22:49;7.70;99.90
21035;DHT22;10676;50.848;3.272;2023-12-20T09:25:15;7.70;99.90
21035;DHT22;10676;50.848;3.272;2023-12-20T09:27:43;7.70;99.90
21035;DHT22;10676;50.848;3.272;2023-12-20T09:30:09;7.80;99.90
21035;DHT22;10676;50.848;3.272;2023-12-20T09:32:35;7.90;99.90
21035;DHT22;10676;50.848;3.272;2023-12-20T09:35:01;8.00;99.90
21035;DHT22;10676;50.848;3.272;2023-12-20T09:37:28;8.10;99.90
21035;DHT22;10676;50.848;3.272;2023-12-20T09:39:54;8.30;99.90
21035;DHT22;10676;50.848;3.272;2023-12-20T09:42:48;8.40;99.90
21035;DHT22;10676;50.848;3.272;2023-12-20T09:45:20;8.40;99.90
21035;DHT22;10676;50.848;3.272;2023-12-20T09:47:48;8.40;99.90
21035;DHT22;10676;50.848;3.272;2023-12-20T09:50:14;8.40;99.90
21035;DHT22;10676;50.848;3.272;2023-12-20T09:52:42;8.50;99.90
21035;DHT22;10676;50.848;3.272;2023-12-20T09:55:09;8.50;99.90
21035;DHT22;10676;50.848;3.272;2023-12-20T09:57:35;8.60;99.90
21035;DHT22;10676;50.848;3.272;2023-12-20T10:00:01;8.70;99.90
21035;DHT22;10676;50.848;3.272;2023-12-20T10:02:27;8.70;99.90
21035;DHT22;10676;50.848;3.272;2023-12-20T10:04:54;8.70;99.90
21035;DHT22;10676;50.848;3.272;2023-12-20T10:07:20;8.70;99.90
21035;DHT22;10676;50.848;3.272;2023-12-20T10:09:47;8.80;99.90
21035;DHT22;10676;50.848;3.272;2023-12-20T10:12:12;8.90;99.90
21035;DHT22;10676;50.848;3.272;2023-12-20T10:14:39;9.00;99.90
21035;DHT22;10676;50.848;3.272;2023-12-20T10:17:05;9.10;99.90
21035;DHT22;10676;50.848;3.272;2023-12-20T10:19:33;9.30;99.90
21035;DHT22;10676;50.848;3.272;2023-12-20T10:22:04;9.40;99.90
21035;DHT22;10676;50.848;3.272;2023-12-20T10:24:30;9.50;99.90
21035;DHT22;10676;50.848;3.272;2023-12-20T10:27:07;9.60;99.90
21035;DHT22;10676;50.848;3.272;2023-12-20T10:29:37;9.70;99.90
21035;DHT22;10676;50.848;3.272;2023-12-20T10:34:52;9.80;99.90
21035;DHT22;10676;50.848;3.272;2023-12-20T10:37:18;9.90;99.90
21035;DHT22;10676;50.848;3.272;2023-12-20T10:39:49;9.90;99.90
21035;DHT22;10676;50.848;3.272;2023-12-20T10:42:15;10.00;99.90
21035;DHT22;10676;50.848;3.272;2023-12-20T10:44:42;10.10;99.90
21035;DHT22;10676;50.848;3.272;2023-12-20T10:47:09;10.20;99.90
21035;DHT22;10676;50.848;3.272;2023-12-20T10:49:37;10.20;99.90
21035;DHT22;10676;50.848;3.272;2023-12-20T10:52:06;10.30;99.90
21035;DHT22;10676;50.848;3.272;2023-12-20T10:54:32;10.30;99.90
21035;DHT22;10676;50.848;3.272;2023-12-20T10:56:58;10.30;99.90
21035;DHT22;10676;50.848;3.272;2023-12-20T10:59:28;10.30;99.90
21035;DHT22;10676;50.848;3.272;2023-12-20T11:01:55;10.40;99.90
21035;DHT22;10676;50.848;3.272;2023-12-20T11:04:31;10.40;99.90
21035;DHT22;10676;50.848;3.272;2023-12-20T11:07:18;10.40;99.90
21035;DHT22;10676;50.848;3.272;2023-12-20T11:10:09;10.40;99.90
21035;DHT22;10676;50.848;3.272;2023-12-20T11:12:48;10.40;99.90
21035;DHT22;10676;50.848;3.272;2023-12-20T11:15:16;10.50;99.90
21035;DHT22;10676;50.848;3.272;2023-12-20T11:17:45;10.40;99.90
21035;DHT22;10676;50.848;3.272;2023-12-20T11:20:12;10.40;99.90
21035;DHT22;10676;50.848;3.272;2023-12-20T11:22:40;10.30;99.90
21035;DHT22;10676;50.848;3.272;2023-12-20T11:25:16;10.20;99.90
21035;DHT22;10676;50.848;3.272;2023-12-20T11:27:42;10.20;99.90
21035;DHT22;10676;50.848;3.272;2023-12-20T11:30:09;10.20;99.90
21035;DHT22;10676;50.848;3.272;2023-12-20T11:32:36;10.20;99.90
21035;DHT22;10676;50.848;3.272;2023-12-20T11:37:38;10.20;99.90
21035;DHT22;10676;50.848;3.272;2023-12-20T11:40:07;10.30;99.90
21035;DHT22;10676;50.848;3.272;2023-12-20T11:42:42;10.30;99.90
21035;DHT22;10676;50.848;3.272;2023-12-20T11:45:15;10.30;99.90
21035;DHT22;10676;50.848;3.272;2023-12-20T11:47:51;10.40;99.90
21035;DHT22;10676;50.848;3.272;2023-12-20T11:50:19;10.40;99.90
21035;DHT22;10676;50.848;3.272;2023-12-20T11:52:45;10.50;99.90
21035;DHT22;10676;50.848;3.272;2023-12-20T11:55:12;10.60;99.90
21035;DHT22;10676;50.848;3.272;2023-12-20T11:57:38;10.60;99.90
21035;DHT22;10676;50.848;3.272;2023-12-20T12:00:04;10.80;99.90
21035;DHT22;10676;50.848;3.272;2023-12-20T12:02:31;10.90;99.90
21035;DHT22;10676;50.848;3.272;2023-12-20T12:04:57;11.00;99.90
21035;DHT22;10676;50.848;3.272;2023-12-20T12:07:24;11.00;99.90
21035;DHT22;10676;50.848;3.272;2023-12-20T12:09:50;11.00;99.90
21035;DHT22;10676;50.848;3.272;2023-12-20T12:12:17;11.00;99.90
21035;DHT22;10676;50.848;3.272;2023-12-20T12:14:45;11.00;99.90
21035;DHT22;10676;50.848;3.272;2023-12-20T12:17:14;11.00;99.90
21035;DHT22;10676;50.848;3.272;2023-12-20T12:19:42;11.00;99.90
21035;DHT22;10676;50.848;3.272;2023-12-20T12:22:09;11.00;99.90
21035;DHT22;10676;50.848;3.272;2023-12-20T12:24:43;11.00;99.90
21035;DHT22;10676;50.848;3.272;2023-12-20T12:27:10;11.00;99.90
21035;DHT22;10676;50.848;3.272;2023-12-20T12:29:36;11.00;99.90
21035;DHT22;10676;50.848;3.272;2023-12-20T12:32:06;11.10;99.90
21035;DHT22;10676;50.848;3.272;2023-12-20T12:34:33;11.10;99.90
21035;DHT22;10676;50.848;3.272;2023-12-20T12:37:00;11.20;99.90
21035;DHT22;10676;50.848;3.272;2023-12-20T12:39:25;11.40;99.90
21035;DHT22;10676;50.848;3.272;2023-12-20T12:41:52;11.40;99.90
21035;DHT22;10676;50.848;3.272;2023-12-20T12:44:17;11.50;99.90
21035;DHT22;10676;50.848;3.272;2023-12-20T12:46:45;11.50;99.90
21035;DHT22;10676;50.848;3.272;2023-12-20T12:49:11;11.60;99.90
21035;DHT22;10676;50.848;3.272;2023-12-20T12:51:38;11.60;99.90
21035;DHT22;10676;50.848;3.272;2023-12-20T12:54:04;11.70;99.90
21035;DHT22;10676;50.848;3.272;2023-12-20T12:56:29;11.80;99.90
21035;DHT22;10676;50.848;3.272;2023-12-20T12:58:56;12.00;99.90
21035;DHT22;10676;50.848;3.272;2023-12-20T13:01:21;12.10;99.90
21035;DHT22;10676;50.848;3.272;2023-12-20T13:03:47;12.10;99.90
21035;DHT22;10676;50.848;3.272;2023-12-20T13:06:14;12.20;99.90
21035;DHT22;10676;50.848;3.272;2023-12-20T13:08:40;12.20;99.90
21035;DHT22;10676;50.848;3.272;2023-12-20T13:11:05;12.30;99.90
21035;DHT22;10676;50.848;3.272;2023-12-20T13:13:31;12.30;99.90
21035;DHT22;10676;50.848;3.272;2023-12-20T13:15:57;12.20;99.90
21035;DHT22;10676;50.848;3.272;2023-12-20T13:18:23;12.20;99.90
21035;DHT22;10676;50.848;3.272;2023-12-20T13:20:49;12.10;99.90
21035;DHT22;10676;50.848;3.272;2023-12-20T13:23:15;12.10;99.90
21035;DHT22;10676;50.848;3.272;2023-12-20T13:25:43;12.00;99.90
21035;DHT22;10676;50.848;3.272;2023-12-20T13:28:11;12.00;99.90
21035;DHT22;10676;50.848;3.272;2023-12-20T13:30:37;12.00;99.90
21035;DHT22;10676;50.848;3.272;2023-12-20T13:33:03;11.80;99.90
21035;DHT22;10676;50.848;3.272;2023-12-20T13:35:29;11.80;99.90
21035;DHT22;10676;50.848;3.272;2023-12-20T13:37:55;11.70;99.90
21035;DHT22;10676;50.848;3.272;2023-12-20T13:40:21;11.70;99.90
21035;DHT22;10676;50.848;3.272;2023-12-20T13:42:47;11.70;99.90
21035;DHT22;10676;50.848;3.272;2023-12-20T13:45:13;11.70;99.90
21035;DHT22;10676;50.848;3.272;2023-12-20T13:47:39;11.60;99.90
21035;DHT22;10676;50.848;3.272;2023-12-20T13:50:05;11.60;99.90
21035;DHT22;10676;50.848;3.272;2023-12-20T13:52:33;11.60;99.90
21035;DHT22;10676;50.848;3.272;2023-12-20T13:54:59;11.60;99.90
21035;DHT22;10676;50.848;3.272;2023-12-20T13:57:24;11.50;99.90
21035;DHT22;10676;50.848;3.272;2023-12-20T13:59:50;11.50;99.90
21035;DHT22;10676;50.848;3.272;2023-12-20T14:02:16;11.60;99.90
21035;DHT22;10676;50.848;3.272;2023-12-20T14:04:44;11.60;99.90
21035;DHT22;10676;50.848;3.272;2023-12-20T14:07:10;11.60;99.90
21035;DHT22;10676;50.848;3.272;2023-12-20T14:09:36;11.60;99.90
21035;DHT22;10676;50.848;3.272;2023-12-20T14:12:02;11.70;99.90
21035;DHT22;10676;50.848;3.272;2023-12-20T14:14:27;11.70;99.90
21035;DHT22;10676;50.848;3.272;2023-12-20T14:16:53;11.70;99.90
21035;DHT22;10676;50.848;3.272;2023-12-20T14:19:30;11.70;99.90
21035;DHT22;10676;50.848;3.272;2023-12-20T14:21:55;11.60;99.90
21035;DHT22;10676;50.848;3.272;2023-12-20T14:24:21;11.70;99.90
21035;DHT22;10676;50.848;3.272;2023-12-20T14:26:48;11.60;99.90
21035;DHT22;10676;50.848;3.272;2023-12-20T14:29:14;11.70;99.90
21035;DHT22;10676;50.848;3.272;2023-12-20T14:31:39;11.70;99.90
21035;DHT22;10676;50.848;3.272;2023-12-20T14:34:06;11.60;99.90
21035;DHT22;10676;50.848;3.272;2023-12-20T14:36:32;11.60;99.90
21035;DHT22;10676;50.848;3.272;2023-12-20T14:38:57;11.60;99.90
21035;DHT22;10676;50.848;3.272;2023-12-20T14:41:23;11.60;99.90
21035;DHT22;10676;50.848;3.272;2023-12-20T14:43:50;11.50;99.90
21035;DHT22;10676;50.848;3.272;2023-12-20T14:46:17;11.50;99.90
21035;DHT22;10676;50.848;3.272;2023-12-20T14:48:43;11.40;99.90
21035;DHT22;10676;50.848;3.272;2023-12-20T14:51:09;11.40;99.90
21035;DHT22;10676;50.848;3.272;2023-12-20T14:53:35;11.40;99.90
21035;DHT22;10676;50.848;3.272;2023-12-20T14:56:03;11.30;99.90
21035;DHT22;10676;50.848;3.272;2023-12-20T14:58:29;11.30;99.90
21035;DHT22;10676;50.848;3.272;2023-12-20T15:00:55;11.20;99.90
21035;DHT22;10676;50.848;3.272;2023-12-20T15:03:21;11.20;99.90
21035;DHT22;10676;50.848;3.272;2023-12-20T15:05:47;11.10;99.90
21035;DHT22;10676;50.848;3.272;2023-12-20T15:08:13;11.10;99.90
21035;DHT22;10676;50.848;3.272;2023-12-20T15:10:39;11.10;99.90
21035;DHT22;10676;50.848;3.272;2023-12-20T15:13:05;11.10;99.90
21035;DHT22;10676;50.848;3.272;2023-12-20T15:15:31;11.10;99.90
21035;DHT22;10676;50.848;3.272;2023-12-20T15:17:59;11.00;99.90
21035;DHT22;10676;50.848;3.272;2023-12-20T15:20:25;11.00;99.90
21035;DHT22;10676;50.848;3.272;2023-12-20T15:22:50;10.90;99.90
21035;DHT22;10676;50.848;3.272;2023-12-20T15:25:19;10.90;99.90
21035;DHT22;10676;50.848;3.272;2023-12-20T15:27:48;10.80;99.90
21035;DHT22;10676;50.848;3.272;2023-12-20T15:30:19;10.80;99.90
21035;DHT22;10676;50.848;3.272;2023-12-20T15:32:45;10.80;99.90
21035;DHT22;10676;50.848;3.272;2023-12-20T15:35:11;10.80;99.90
21035;DHT22;10676;50.848;3.272;2023-12-20T15:37:38;10.70;99.90
21035;DHT22;10676;50.848;3.272;2023-12-20T15:40:08;10.70;99.90
21035;DHT22;10676;50.848;3.272;2023-12-20T15:42:39;10.70;99.90